sensor_id;sensor_type;location;lat;lon;timestamp;pressure;altitude;pressure_sealevel;temperature;humidity
15272;BME280;7737;51.578;7.268;2023-04-27T00:02:10;101508.75;;;4.76;100.00
15272;BME280;7737;51.578;7.268;2023-04-27T00:04:37;101507.28;;;4.51;100.00
15272;BME280;7737;51.578;7.268;2023-04-27T00:07:04;101517.91;;;4.45;100.00
15272;BME280;7737;51.578;7.268;2023-04-27T00:09:30;101518.03;;;4.32;100.00
15272;BME280;7737;51.578;7.268;2023-04-27T00:11:57;101519.91;;;4.23;100.00
15272;BME280;7737;51.578;7.268;2023-04-27T00:14:23;101516.25;;;4.35;100.00
15272;BME280;7737;51.578;7.268;2023-04-27T00:16:52;101519.81;;;4.30;100.00
15272;BME280;7737;51.578;7.268;2023-04-27T00:19:20;101516.44;;;4.19;100.00
15272;BME280;7737;51.578;7.268;2023-04-27T00:21:47;101519.03;;;4.21;100.00
15272;BME280;7737;51.578;7.268;2023-04-27T00:24:14;101516.47;;;4.16;100.00
15272;BME280;7737;51.578;7.268;2023-04-27T00:26:40;101519.13;;;4.15;100.00
15272;BME280;7737;51.578;7.268;2023-04-27T00:29:07;101522.53;;;4.21;100.00
15272;BME280;7737;51.578;7.268;2023-04-27T00:31:33;101525.41;;;3.97;100.00
15272;BME280;7737;51.578;7.268;2023-04-27T00:34:00;101525.72;;;3.67;100.00
15272;BME280;7737;51.578;7.268;2023-04-27T00:36:28;101532.50;;;3.92;100.00
15272;BME280;7737;51.578;7.268;2023-04-27T00:38:54;101532.56;;;3.86;100.00
15272;BME280;7737;51.578;7.268;2023-04-27T00:41:21;101528.97;;;3.96;100.00
15272;BME280;7737;51.578;7.268;2023-04-27T00:43:48;101524.63;;;3.89;100.00
15272;BME280;7737;51.578;7.268;2023-04-27T00:46:15;101525.59;;;3.79;100.00
15272;BME280;7737;51.578;7.268;2023-04-27T00:48:43;101533.66;;;3.59;100.00
15272;BME280;7737;51.578;7.268;2023-04-27T00:51:10;101537.41;;;3.24;100.00
15272;BME280;7737;51.578;7.268;2023-04-27T00:53:38;101532.22;;;3.19;100.00
15272;BME280;7737;51.578;7.268;2023-04-27T00:56:06;101538.06;;;3.56;100.00
15272;BME280;7737;51.578;7.268;2023-04-27T00:58:33;101540.72;;;3.54;100.00
15272;BME280;7737;51.578;7.268;2023-04-27T01:01:00;101541.56;;;3.55;100.00
15272;BME280;7737;51.578;7.268;2023-04-27T01:03:29;101542.44;;;3.58;100.00
15272;BME280;7737;51.578;7.268;2023-04-27T01:05:55;101541.78;;;3.31;100.00
15272;BME280;7737;51.578;7.268;2023-04-27T01:08:25;101544.34;;;3.41;100.00
15272;BME280;7737;51.578;7.268;2023-04-27T01:10:53;101543.31;;;3.56;100.00
15272;BME280;7737;51.578;7.268;2023-04-27T01:13:20;101553.94;;;3.44;100.00
15272;BME280;7737;51.578;7.268;2023-04-27T01:15:47;101553.88;;;3.53;100.00
15272;BME280;7737;51.578;7.268;2023-04-27T01:18:13;101556.59;;;3.38;100.00
15272;BME280;7737;51.578;7.268;2023-04-27T01:20:40;101560.94;;;3.45;100.00
15272;BME280;7737;51.578;7.268;2023-04-27T01:23:07;101554.84;;;3.41;100.00
15272;BME280;7737;51.578;7.268;2023-04-27T01:25:35;101555.59;;;3.60;100.00
15272;BME280;7737;51.578;7.268;2023-04-27T01:28:02;101556.56;;;3.44;100.00
15272;BME280;7737;51.578;7.268;2023-04-27T01:30:28;101548.72;;;3.36;100.00
15272;BME280;7737;51.578;7.268;2023-04-27T01:32:55;101566.47;;;2.98;100.00
15272;BME280;7737;51.578;7.268;2023-04-27T01:35:22;101560.22;;;3.20;100.00
15272;BME280;7737;51.578;7.268;2023-04-27T01:37:48;101566.44;;;3.05;100.00
15272;BME280;7737;51.578;7.268;2023-04-27T01:40:15;101569.09;;;2.98;100.00
15272;BME280;7737;51.578;7.268;2023-04-27T01:42:43;101570.91;;;2.85;100.00
15272;BME280;7737;51.578;7.268;2023-04-27T01:45:10;101565.38;;;3.38;100.00
15272;BME280;7737;51.578;7.268;2023-04-27T01:47:37;101569.75;;;3.38;100.00
15272;BME280;7737;51.578;7.268;2023-04-27T01:50:04;101568.06;;;3.31;100.00
15272;BME280;7737;51.578;7.268;2023-04-27T01:52:31;101564.53;;;3.26;100.00
15272;BME280;7737;51.578;7.268;2023-04-27T01:54:58;101571.63;;;3.18;100.00
15272;BME280;7737;51.578;7.268;2023-04-27T01:57:24;101570.66;;;3.32;100.00
15272;BME280;7737;51.578;7.268;2023-04-27T01:59:52;101577.69;;;3.26;100.00
15272;BME280;7737;51.578;7.268;2023-04-27T02:02:18;101580.28;;;3.33;100.00
15272;BME280;7737;51.578;7.268;2023-04-27T02:04:45;101577.72;;;3.24;100.00
15272;BME280;7737;51.578;7.268;2023-04-27T02:07:12;101579.50;;;3.16;100.00
15272;BME280;7737;51.578;7.268;2023-04-27T02:09:38;101581.19;;;3.26;100.00
15272;BME280;7737;51.578;7.268;2023-04-27T02:12:05;101582.91;;;3.32;100.00
15272;BME280;7737;51.578;7.268;2023-04-27T02:14:31;101579.47;;;3.25;100.00
15272;BME280;7737;51.578;7.268;2023-04-27T02:16:59;101580.44;;;3.06;100.00
15272;BME280;7737;51.578;7.268;2023-04-27T02:19:26;101573.38;;;3.13;100.00
15272;BME280;7737;51.578;7.268;2023-04-27T02:21:52;101577.78;;;3.12;100.00
15272;BME280;7737;51.578;7.268;2023-04-27T02:24:19;101581.25;;;3.16;100.00
15272;BME280;7737;51.578;7.268;2023-04-27T02:26:45;101580.41;;;3.07;100.00
15272;BME280;7737;51.578;7.268;2023-04-27T02:29:12;101583.97;;;2.97;100.00
15272;BME280;7737;51.578;7.268;2023-04-27T02:31:38;101578.72;;;2.97;100.00
15272;BME280;7737;51.578;7.268;2023-04-27T02:34:06;101575.16;;;3.07;100.00
15272;BME280;7737;51.578;7.268;2023-04-27T02:36:32;101578.63;;;3.13;100.00
15272;BME280;7737;51.578;7.268;2023-04-27T02:38:59;101574.28;;;3.15;100.00
15272;BME280;7737;51.578;7.268;2023-04-27T02:41:26;101570.81;;;3.03;100.00
15272;BME280;7737;51.578;7.268;2023-04-27T02:43:53;101569.91;;;3.07;100.00
15272;BME280;7737;51.578;7.268;2023-04-27T02:46:19;101564.66;;;3.04;100.00
15272;BME280;7737;51.578;7.268;2023-04-27T02:48:46;101569.13;;;2.95;100.00
15272;BME280;7737;51.578;7.268;2023-04-27T02:51:14;101563.81;;;3.04;100.00
15272;BME280;7737;51.578;7.268;2023-04-27T02:53:40;101564.75;;;2.95;100.00
15272;BME280;7737;51.578;7.268;2023-04-27T02:56:07;101564.78;;;2.88;100.00
15272;BME280;7737;51.578;7.268;2023-04-27T02:58:33;101559.50;;;2.86;100.00
15272;BME280;7737;51.578;7.268;2023-04-27T03:01:00;101567.44;;;2.79;100.00
15272;BME280;7737;51.578;7.268;2023-04-27T03:03:26;101575.34;;;2.71;100.00
15272;BME280;7737;51.578;7.268;2023-04-27T03:05:53;101564.00;;;2.63;100.00
15272;BME280;7737;51.578;7.268;2023-04-27T03:08:21;101561.38;;;2.66;100.00
15272;BME280;7737;51.578;7.268;2023-04-27T03:10:47;101559.63;;;2.67;100.00
15272;BME280;7737;51.578;7.268;2023-04-27T03:13:14;101555.19;;;2.73;100.00
15272;BME280;7737;51.578;7.268;2023-04-27T03:15:40;101552.56;;;2.73;100.00
15272;BME280;7737;51.578;7.268;2023-04-27T03:18:07;101550.81;;;2.78;100.00
15272;BME280;7737;51.578;7.268;2023-04-27T03:20:33;101549.09;;;2.71;100.00
15272;BME280;7737;51.578;7.268;2023-04-27T03:23:00;101553.63;;;2.33;100.00
15272;BME280;7737;51.578;7.268;2023-04-27T03:25:28;101557.94;;;2.46;100.00
15272;BME280;7737;51.578;7.268;2023-04-27T03:27:54;101550.94;;;2.51;100.00
15272;BME280;7737;51.578;7.268;2023-04-27T03:30:21;101556.25;;;2.30;100.00
15272;BME280;7737;51.578;7.268;2023-04-27T03:32:48;101546.56;;;2.41;100.00
15272;BME280;7737;51.578;7.268;2023-04-27T03:35:14;101550.13;;;2.32;100.00
15272;BME280;7737;51.578;7.268;2023-04-27T03:37:41;101557.97;;;2.37;100.00
15272;BME280;7737;51.578;7.268;2023-04-27T03:40:11;101559.69;;;2.47;100.00
15272;BME280;7737;51.578;7.268;2023-04-27T03:42:39;101556.25;;;2.30;100.00
15272;BME280;7737;51.578;7.268;2023-04-27T03:45:07;101563.22;;;2.26;100.00
15272;BME280;7737;51.578;7.268;2023-04-27T03:47:36;101563.22;;;2.34;100.00
15272;BME280;7737;51.578;7.268;2023-04-27T03:50:03;101565.00;;;2.21;100.00
15272;BME280;7737;51.578;7.268;2023-04-27T03:52:30;101572.84;;;2.26;100.00
15272;BME280;7737;51.578;7.268;2023-04-27T03:54:56;101567.56;;;2.49;100.00
15272;BME280;7737;51.578;7.268;2023-04-27T03:57:23;101582.47;;;2.27;100.00
15272;BME280;7737;51.578;7.268;2023-04-27T03:59:50;101572.81;;;2.36;100.00
15272;BME280;7737;51.578;7.268;2023-04-27T04:02:17;101572.00;;;2.24;100.00
15272;BME280;7737;51.578;7.268;2023-04-27T04:04:44;101579.00;;;1.96;100.00
15272;BME280;7737;51.578;7.268;2023-04-27T04:07:10;101596.47;;;1.77;100.00
15272;BME280;7737;51.578;7.268;2023-04-27T04:09:37;101584.25;;;1.76;100.00
15272;BME280;7737;51.578;7.268;2023-04-27T04:12:04;101579.00;;;1.99;100.00
15272;BME280;7737;51.578;7.268;2023-04-27T04:14:31;101585.13;;;2.07;100.00
15272;BME280;7737;51.578;7.268;2023-04-27T04:16:59;101601.75;;;1.85;100.00
15272;BME280;7737;51.578;7.268;2023-04-27T04:19:25;101600.88;;;1.91;100.00
15272;BME280;7737;51.578;7.268;2023-04-27T04:21:52;101606.09;;;2.03;100.00
15272;BME280;7737;51.578;7.268;2023-04-27T04:24:18;101594.75;;;2.08;100.00
15272;BME280;7737;51.578;7.268;2023-04-27T04:26:45;101601.72;;;1.99;100.00
15272;BME280;7737;51.578;7.268;2023-04-27T04:29:12;101592.13;;;2.08;100.00
15272;BME280;7737;51.578;7.268;2023-04-27T04:31:39;101587.75;;;2.09;100.00
15272;BME280;7737;51.578;7.268;2023-04-27T04:34:07;101592.97;;;2.19;100.00
15272;BME280;7737;51.578;7.268;2023-04-27T04:36:34;101596.38;;;2.52;100.00
15272;BME280;7737;51.578;7.268;2023-04-27T04:39:02;101591.16;;;2.56;100.00
15272;BME280;7737;51.578;7.268;2023-04-27T04:41:29;101592.00;;;2.63;100.00
15272;BME280;7737;51.578;7.268;2023-04-27T04:43:56;101592.00;;;2.61;100.00
15272;BME280;7737;51.578;7.268;2023-04-27T04:46:23;101595.56;;;2.31;100.00
15272;BME280;7737;51.578;7.268;2023-04-27T04:48:50;101596.50;;;1.90;100.00
15272;BME280;7737;51.578;7.268;2023-04-27T04:51:18;101599.97;;;1.89;100.00
15272;BME280;7737;51.578;7.268;2023-04-27T04:53:44;101607.00;;;1.93;100.00
15272;BME280;7737;51.578;7.268;2023-04-27T04:56:12;101608.72;;;2.00;100.00
15272;BME280;7737;51.578;7.268;2023-04-27T04:58:41;101599.97;;;2.25;100.00
15272;BME280;7737;51.578;7.268;2023-04-27T05:03:42;101602.50;;;2.55;100.00
15272;BME280;7737;51.578;7.268;2023-04-27T05:06:09;101604.31;;;2.45;100.00
15272;BME280;7737;51.578;7.268;2023-04-27T05:08:37;101606.94;;;2.39;100.00
15272;BME280;7737;51.578;7.268;2023-04-27T05:11:04;101603.44;;;2.37;100.00
15272;BME280;7737;51.578;7.268;2023-04-27T05:13:30;101606.06;;;2.40;100.00
15272;BME280;7737;51.578;7.268;2023-04-27T05:15:57;101611.31;;;2.37;100.00
15272;BME280;7737;51.578;7.268;2023-04-27T05:18:23;101610.38;;;2.58;100.00
15272;BME280;7737;51.578;7.268;2023-04-27T05:20:50;101613.84;;;2.69;100.00
15272;BME280;7737;51.578;7.268;2023-04-27T05:23:16;101608.56;;;2.78;100.00
15272;BME280;7737;51.578;7.268;2023-04-27T05:25:44;101611.16;;;2.89;100.00
15272;BME280;7737;51.578;7.268;2023-04-27T05:28:11;101619.75;;;3.18;100.00
15272;BME280;7737;51.578;7.268;2023-04-27T05:30:37;101618.91;;;3.18;100.00
15272;BME280;7737;51.578;7.268;2023-04-27T05:33:04;101617.09;;;3.26;100.00
15272;BME280;7737;51.578;7.268;2023-04-27T05:35:32;101618.75;;;3.42;100.00
15272;BME280;7737;51.578;7.268;2023-04-27T05:37:59;101619.53;;;3.57;100.00
15272;BME280;7737;51.578;7.268;2023-04-27T05:40:26;101620.41;;;3.62;100.00
15272;BME280;7737;51.578;7.268;2023-04-27T05:42:54;101624.69;;;3.76;100.00
15272;BME280;7737;51.578;7.268;2023-04-27T05:45:20;101626.31;;;3.90;100.00
15272;BME280;7737;51.578;7.268;2023-04-27T05:47:47;101635.88;;;4.00;100.00
15272;BME280;7737;51.578;7.268;2023-04-27T05:50:14;101637.59;;;4.07;100.00
15272;BME280;7737;51.578;7.268;2023-04-27T05:52:40;101632.16;;;4.28;100.00
15272;BME280;7737;51.578;7.268;2023-04-27T05:55:07;101639.09;;;4.32;100.00
15272;BME280;7737;51.578;7.268;2023-04-27T05:57:34;101640.72;;;4.49;100.00
15272;BME280;7737;51.578;7.268;2023-04-27T06:00:02;101641.38;;;4.69;100.00
15272;BME280;7737;51.578;7.268;2023-04-27T06:02:33;101647.34;;;4.86;100.00
15272;BME280;7737;51.578;7.268;2023-04-27T06:04:59;101645.44;;;5.00;100.00
15272;BME280;7737;51.578;7.268;2023-04-27T06:07:26;101638.13;;;5.20;100.00
15272;BME280;7737;51.578;7.268;2023-04-27T06:09:52;101632.59;;;5.38;100.00
15272;BME280;7737;51.578;7.268;2023-04-27T06:12:19;101636.78;;;5.54;100.00
15272;BME280;7737;51.578;7.268;2023-04-27T06:14:45;101628.59;;;5.73;100.00
15272;BME280;7737;51.578;7.268;2023-04-27T06:17:13;101631.06;;;5.86;100.00
15272;BME280;7737;51.578;7.268;2023-04-27T06:19:40;101624.81;;;5.92;100.00
15272;BME280;7737;51.578;7.268;2023-04-27T06:22:06;101617.59;;;6.03;100.00
15272;BME280;7737;51.578;7.268;2023-04-27T06:24:35;101623.44;;;6.22;100.00
15272;BME280;7737;51.578;7.268;2023-04-27T06:27:02;101623.25;;;6.32;100.00
15272;BME280;7737;51.578;7.268;2023-04-27T06:29:29;101623.06;;;6.41;100.00
15272;BME280;7737;51.578;7.268;2023-04-27T06:31:55;101618.81;;;6.34;100.00
15272;BME280;7737;51.578;7.268;2023-04-27T06:34:23;101624.59;;;6.54;100.00
15272;BME280;7737;51.578;7.268;2023-04-27T06:36:50;101617.38;;;6.64;100.00
15272;BME280;7737;51.578;7.268;2023-04-27T06:39:16;101603.31;;;6.63;100.00
15272;BME280;7737;51.578;7.268;2023-04-27T06:41:43;101603.81;;;6.81;100.00
15272;BME280;7737;51.578;7.268;2023-04-27T06:44:09;101594.50;;;7.06;100.00
15272;BME280;7737;51.578;7.268;2023-04-27T06:46:36;101596.94;;;7.16;100.00
15272;BME280;7737;51.578;7.268;2023-04-27T06:49:03;101596.06;;;7.16;100.00
15272;BME280;7737;51.578;7.268;2023-04-27T06:51:30;101591.34;;;7.30;100.00
15272;BME280;7737;51.578;7.268;2023-04-27T06:53:57;101583.00;;;7.48;100.00
15272;BME280;7737;51.578;7.268;2023-04-27T06:56:24;101577.31;;;7.63;100.00
15272;BME280;7737;51.578;7.268;2023-04-27T06:58:50;101564.41;;;7.51;100.00
15272;BME280;7737;51.578;7.268;2023-04-27T07:01:17;101552.47;;;7.70;100.00
15272;BME280;7737;51.578;7.268;2023-04-27T07:03:43;101540.16;;;7.69;100.00
15272;BME280;7737;51.578;7.268;2023-04-27T07:06:10;101536.22;;;7.85;100.00
15272;BME280;7737;51.578;7.268;2023-04-27T07:08:39;101522.16;;;7.83;100.00
15272;BME280;7737;51.578;7.268;2023-04-27T07:11:05;101513.00;;;7.96;100.00
15272;BME280;7737;51.578;7.268;2023-04-27T07:13:32;101514.84;;;7.93;100.00
15272;BME280;7737;51.578;7.268;2023-04-27T07:15:58;101504.13;;;7.97;100.00
15272;BME280;7737;51.578;7.268;2023-04-27T07:18:25;101505.72;;;8.03;100.00
15272;BME280;7737;51.578;7.268;2023-04-27T07:20:53;101496.59;;;8.15;100.00
15272;BME280;7737;51.578;7.268;2023-04-27T07:23:20;101496.34;;;8.24;100.00
15272;BME280;7737;51.578;7.268;2023-04-27T07:25:47;101479.03;;;8.11;100.00
15272;BME280;7737;51.578;7.268;2023-04-27T07:28:14;101480.75;;;8.45;100.00
15272;BME280;7737;51.578;7.268;2023-04-27T07:30:41;101467.19;;;8.56;100.00
15272;BME280;7737;51.578;7.268;2023-04-27T07:33:08;101457.72;;;8.47;100.00
15272;BME280;7737;51.578;7.268;2023-04-27T07:35:34;101450.25;;;8.62;100.00
15272;BME280;7737;51.578;7.268;2023-04-27T07:38:01;101435.22;;;8.62;100.00
15272;BME280;7737;51.578;7.268;2023-04-27T07:40:28;101443.16;;;8.91;100.00
15272;BME280;7737;51.578;7.268;2023-04-27T07:42:56;101434.38;;;8.89;100.00
15272;BME280;7737;51.578;7.268;2023-04-27T07:45:23;101409.69;;;8.58;100.00
15272;BME280;7737;51.578;7.268;2023-04-27T07:47:56;101424.06;;;8.80;100.00
15272;BME280;7737;51.578;7.268;2023-04-27T07:50:24;101417.28;;;8.98;100.00
15272;BME280;7737;51.578;7.268;2023-04-27T07:52:51;101429.59;;;9.27;100.00
15272;BME280;7737;51.578;7.268;2023-04-27T07:55:18;101426.38;;;9.18;100.00
15272;BME280;7737;51.578;7.268;2023-04-27T07:57:45;101415.94;;;8.85;100.00
15272;BME280;7737;51.578;7.268;2023-04-27T08:00:14;101425.41;;;9.21;100.00
15272;BME280;7737;51.578;7.268;2023-04-27T08:02:41;101407.31;;;9.06;100.00
15272;BME280;7737;51.578;7.268;2023-04-27T08:05:08;101399.22;;;9.37;100.00
15272;BME280;7737;51.578;7.268;2023-04-27T08:07:34;101372.09;;;9.29;100.00
15272;BME280;7737;51.578;7.268;2023-04-27T08:10:01;101396.31;;;9.44;100.00
15272;BME280;7737;51.578;7.268;2023-04-27T08:12:27;101371.47;;;9.45;100.00
15272;BME280;7737;51.578;7.268;2023-04-27T08:14:54;101365.88;;;9.54;99.65
15272;BME280;7737;51.578;7.268;2023-04-27T08:17:22;101370.22;;;9.82;98.83
15272;BME280;7737;51.578;7.268;2023-04-27T08:19:48;101360.72;;;9.74;96.79
15272;BME280;7737;51.578;7.268;2023-04-27T08:22:15;101336.75;;;9.53;94.81
15272;BME280;7737;51.578;7.268;2023-04-27T08:24:42;101340.66;;;9.91;96.47
15272;BME280;7737;51.578;7.268;2023-04-27T08:27:08;101342.69;;;9.84;95.73
15272;BME280;7737;51.578;7.268;2023-04-27T08:29:35;101340.03;;;10.07;95.22
15272;BME280;7737;51.578;7.268;2023-04-27T08:32:03;101332.66;;;9.92;93.93
15272;BME280;7737;51.578;7.268;2023-04-27T08:34:31;101336.53;;;10.53;95.69
15272;BME280;7737;51.578;7.268;2023-04-27T08:36:57;101329.84;;;9.72;89.55
15272;BME280;7737;51.578;7.268;2023-04-27T08:39:24;101320.38;;;10.11;90.03
15272;BME280;7737;51.578;7.268;2023-04-27T08:41:51;101326.31;;;10.19;89.38
15272;BME280;7737;51.578;7.268;2023-04-27T08:44:17;101305.97;;;9.95;87.70
15272;BME280;7737;51.578;7.268;2023-04-27T08:46:44;101309.75;;;10.58;88.49
15272;BME280;7737;51.578;7.268;2023-04-27T08:49:11;101318.50;;;10.38;88.04
15272;BME280;7737;51.578;7.268;2023-04-27T08:51:39;101320.63;;;10.52;87.20
15272;BME280;7737;51.578;7.268;2023-04-27T08:54:05;101301.81;;;10.34;84.58
15272;BME280;7737;51.578;7.268;2023-04-27T08:56:32;101292.19;;;10.54;83.86
15272;BME280;7737;51.578;7.268;2023-04-27T08:58:59;101286.47;;;10.84;83.53
15272;BME280;7737;51.578;7.268;2023-04-27T09:01:28;101268.69;;;10.21;80.60
15272;BME280;7737;51.578;7.268;2023-04-27T09:03:55;101247.78;;;9.89;77.71
15272;BME280;7737;51.578;7.268;2023-04-27T09:06:28;101252.16;;;10.57;78.80
15272;BME280;7737;51.578;7.268;2023-04-27T09:08:57;101272.88;;;11.12;81.65
15272;BME280;7737;51.578;7.268;2023-04-27T09:11:28;101281.13;;;11.26;82.67
15272;BME280;7737;51.578;7.268;2023-04-27T09:13:57;101264.34;;;10.84;80.36
15272;BME280;7737;51.578;7.268;2023-04-27T09:16:24;101266.09;;;11.25;81.34
15272;BME280;7737;51.578;7.268;2023-04-27T09:18:52;101269.94;;;11.18;79.75
15272;BME280;7737;51.578;7.268;2023-04-27T09:21:22;101264.34;;;11.44;80.46
15272;BME280;7737;51.578;7.268;2023-04-27T09:23:49;101248.72;;;11.37;79.43
15272;BME280;7737;51.578;7.268;2023-04-27T09:26:20;101235.63;;;10.92;77.39
15272;BME280;7737;51.578;7.268;2023-04-27T09:28:49;101224.78;;;11.76;78.35
15272;BME280;7737;51.578;7.268;2023-04-27T09:31:16;101193.72;;;11.56;74.78
15272;BME280;7737;51.578;7.268;2023-04-27T09:33:44;101190.69;;;11.63;73.24
15272;BME280;7737;51.578;7.268;2023-04-27T09:36:12;101176.72;;;11.58;71.72
15272;BME280;7737;51.578;7.268;2023-04-27T09:38:39;101182.97;;;11.96;72.70
15272;BME280;7737;51.578;7.268;2023-04-27T09:41:06;101142.63;;;11.67;69.33
15272;BME280;7737;51.578;7.268;2023-04-27T09:43:35;101139.59;;;11.55;68.97
15272;BME280;7737;51.578;7.268;2023-04-27T09:46:03;101135.47;;;12.40;68.63
15272;BME280;7737;51.578;7.268;2023-04-27T09:48:29;101149.72;;;12.39;69.46
15272;BME280;7737;51.578;7.268;2023-04-27T09:50:56;101127.31;;;12.43;67.78
15272;BME280;7737;51.578;7.268;2023-04-27T09:53:27;101098.97;;;12.06;65.40
15272;BME280;7737;51.578;7.268;2023-04-27T09:56:15;101111.22;;;11.92;66.88
15272;BME280;7737;51.578;7.268;2023-04-27T09:59:11;101103.03;;;12.82;65.49
15272;BME280;7737;51.578;7.268;2023-04-27T10:01:44;101098.53;;;12.67;65.19
15272;BME280;7737;51.578;7.268;2023-04-27T10:04:21;101094.00;;;12.84;64.40
15272;BME280;7737;51.578;7.268;2023-04-27T10:06:58;101085.38;;;12.97;62.98
15272;BME280;7737;51.578;7.268;2023-04-27T10:09:25;101053.72;;;12.05;60.22
15272;BME280;7737;51.578;7.268;2023-04-27T10:11:54;101094.69;;;12.72;64.25
15272;BME280;7737;51.578;7.268;2023-04-27T10:14:23;101077.28;;;12.48;62.50
15272;BME280;7737;51.578;7.268;2023-04-27T10:16:51;101092.97;;;13.04;64.08
15272;BME280;7737;51.578;7.268;2023-04-27T10:19:19;101054.66;;;12.72;60.49
15272;BME280;7737;51.578;7.268;2023-04-27T10:21:57;101038.44;;;13.41;59.39
15272;BME280;7737;51.578;7.268;2023-04-27T10:24:33;101009.06;;;13.41;57.03
15272;BME280;7737;51.578;7.268;2023-04-27T10:27:02;101031.38;;;13.56;58.89
15272;BME280;7737;51.578;7.268;2023-04-27T10:29:40;101028.34;;;13.77;59.53
15272;BME280;7737;51.578;7.268;2023-04-27T10:32:08;101029.50;;;13.87;59.16
15272;BME280;7737;51.578;7.268;2023-04-27T10:34:35;101039.28;;;13.73;60.52
15272;BME280;7737;51.578;7.268;2023-04-27T10:37:08;101026.28;;;13.51;58.80
15272;BME280;7737;51.578;7.268;2023-04-27T10:39:36;101008.16;;;13.72;58.08
15272;BME280;7737;51.578;7.268;2023-04-27T10:42:04;101013.41;;;13.89;58.43
15272;BME280;7737;51.578;7.268;2023-04-27T10:44:33;101028.44;;;13.76;59.75
15272;BME280;7737;51.578;7.268;2023-04-27T10:47:11;101008.63;;;13.64;56.74
15272;BME280;7737;51.578;7.268;2023-04-27T10:49:38;101010.81;;;14.17;57.93
15272;BME280;7737;51.578;7.268;2023-04-27T10:52:05;100987.25;;;14.24;56.70
15272;BME280;7737;51.578;7.268;2023-04-27T10:54:32;100938.81;;;13.09;51.70
15272;BME280;7737;51.578;7.268;2023-04-27T10:57:06;100939.72;;;13.55;51.97
15272;BME280;7737;51.578;7.268;2023-04-27T10:59:33;100994.50;;;14.37;55.61
15272;BME280;7737;51.578;7.268;2023-04-27T11:02:02;100979.50;;;14.35;53.74
15272;BME280;7737;51.578;7.268;2023-04-27T11:04:36;100989.81;;;14.25;54.58
15272;BME280;7737;51.578;7.268;2023-04-27T11:07:04;100993.38;;;14.26;54.93
15272;BME280;7737;51.578;7.268;2023-04-27T11:09:33;100985.41;;;14.54;54.73
15272;BME280;7737;51.578;7.268;2023-04-27T11:12:00;100987.31;;;14.52;54.66
15272;BME280;7737;51.578;7.268;2023-04-27T11:14:26;100977.84;;;14.02;53.48
15272;BME280;7737;51.578;7.268;2023-04-27T11:16:54;100934.19;;;13.42;50.07
15272;BME280;7737;51.578;7.268;2023-04-27T11:19:22;100983.59;;;14.83;53.52
15272;BME280;7737;51.578;7.268;2023-04-27T11:21:48;100959.16;;;14.60;51.98
15272;BME280;7737;51.578;7.268;2023-04-27T11:24:15;100989.84;;;14.69;54.66
15272;BME280;7737;51.578;7.268;2023-04-27T11:26:41;100974.25;;;14.18;52.00
15272;BME280;7737;51.578;7.268;2023-04-27T11:29:09;101008.72;;;14.80;55.70
15272;BME280;7737;51.578;7.268;2023-04-27T11:31:39;100953.81;;;14.17;51.52
15272;BME280;7737;51.578;7.268;2023-04-27T11:34:07;100920.16;;;13.98;48.91
15272;BME280;7737;51.578;7.268;2023-04-27T11:36:35;100953.63;;;14.20;50.40
15272;BME280;7737;51.578;7.268;2023-04-27T11:39:02;100945.22;;;14.26;49.99
15272;BME280;7737;51.578;7.268;2023-04-27T11:41:34;100931.13;;;14.38;49.15
15272;BME280;7737;51.578;7.268;2023-04-27T11:44:05;100938.16;;;14.11;49.74
15272;BME280;7737;51.578;7.268;2023-04-27T11:46:34;100955.22;;;14.52;50.92
15272;BME280;7737;51.578;7.268;2023-04-27T11:49:02;100941.53;;;14.56;50.26
15272;BME280;7737;51.578;7.268;2023-04-27T11:51:30;100962.47;;;14.78;51.56
15272;BME280;7737;51.578;7.268;2023-04-27T11:54:01;100949.19;;;14.62;50.40
15272;BME280;7737;51.578;7.268;2023-04-27T11:56:36;100946.13;;;14.40;49.98
15272;BME280;7737;51.578;7.268;2023-04-27T11:59:02;100963.84;;;15.12;51.02
15272;BME280;7737;51.578;7.268;2023-04-27T12:01:30;100967.44;;;15.39;51.43
15272;BME280;7737;51.578;7.268;2023-04-27T12:03:58;100935.59;;;15.35;49.95
15272;BME280;7737;51.578;7.268;2023-04-27T12:06:25;100914.31;;;14.78;48.44
15272;BME280;7737;51.578;7.268;2023-04-27T12:08:53;100929.16;;;15.51;50.18
15272;BME280;7737;51.578;7.268;2023-04-27T12:11:21;100947.69;;;15.54;51.27
15272;BME280;7737;51.578;7.268;2023-04-27T12:13:48;100952.22;;;15.54;50.74
15272;BME280;7737;51.578;7.268;2023-04-27T12:16:14;100935.63;;;14.51;48.64
15272;BME280;7737;51.578;7.268;2023-04-27T12:18:41;100914.66;;;14.86;47.56
15272;BME280;7737;51.578;7.268;2023-04-27T12:21:07;100974.06;;;15.48;52.44
15272;BME280;7737;51.578;7.268;2023-04-27T12:23:34;100957.94;;;16.89;52.28
15272;BME280;7737;51.578;7.268;2023-04-27T12:26:02;100920.75;;;15.70;48.39
15272;BME280;7737;51.578;7.268;2023-04-27T12:28:30;100914.28;;;15.60;47.96
15272;BME280;7737;51.578;7.268;2023-04-27T12:30:57;100905.50;;;15.17;46.47
15272;BME280;7737;51.578;7.268;2023-04-27T12:33:23;100905.78;;;15.27;47.49
15272;BME280;7737;51.578;7.268;2023-04-27T12:35:50;100900.63;;;15.23;47.34
15272;BME280;7737;51.578;7.268;2023-04-27T12:38:18;100904.41;;;15.60;47.62
15272;BME280;7737;51.578;7.268;2023-04-27T12:40:45;100909.97;;;16.34;47.42
15272;BME280;7737;51.578;7.268;2023-04-27T12:43:11;100902.91;;;15.56;46.85
15272;BME280;7737;51.578;7.268;2023-04-27T12:45:39;100884.78;;;16.12;45.62
15272;BME280;7737;51.578;7.268;2023-04-27T12:48:06;100862.97;;;15.12;44.58
15272;BME280;7737;51.578;7.268;2023-04-27T12:50:33;100860.94;;;15.82;44.62
15272;BME280;7737;51.578;7.268;2023-04-27T12:53:01;100873.03;;;14.54;44.18
15272;BME280;7737;51.578;7.268;2023-04-27T12:55:27;100872.50;;;16.45;45.60
15272;BME280;7737;51.578;7.268;2023-04-27T12:57:54;100880.81;;;15.53;46.11
15272;BME280;7737;51.578;7.268;2023-04-27T13:00:22;100853.56;;;15.46;44.00
15272;BME280;7737;51.578;7.268;2023-04-27T13:02:51;100881.84;;;15.77;45.93
15272;BME280;7737;51.578;7.268;2023-04-27T13:05:17;100868.38;;;15.52;44.91